Time;durP1;ratioP1;P1;durP2;ratioP2;P2;SDS_P1;SDS_P2;PMS_P1;PMS_P2;Temp;Humidity;BMP_temperature;BMP_pressure;BME280_temperature;BME280_humidity;BME280_pressure;Samples;Min_cycle;Max_cycle;Signal;HPM_P1;HPM_P2
2021/04/17 00:01:21;;;;;;;32.33;11.27;;;3.30;99.90;;;;;;5167935;28;20195;-69
2021/04/17 00:03:53;;;;;;;25.60;10.10;;;3.30;99.90;;;;;;5151728;28;20559;-70
2021/04/17 00:06:24;;;;;;;31.17;11.57;;;3.20;99.90;;;;;;5168630;28;20283;-68
2021/04/17 00:08:56;;;;;;;24.90;11.30;;;3.20;99.90;;;;;;5167821;28;20227;-68
2021/04/17 00:11:28;;;;;;;26.13;11.37;;;3.20;99.90;;;;;;5167571;28;20188;-70
2021/04/17 00:14:00;;;;;;;32.23;12.40;;;3.20;99.90;;;;;;5167960;28;20199;-68
2021/04/17 00:16:31;;;;;;;33.80;11.63;;;3.20;99.90;;;;;;5167726;28;20196;-68
2021/04/17 00:19:04;;;;;;;31.23;12.53;;;3.10;99.90;;;;;;5167833;28;20203;-71
2021/04/17 00:21:35;;;;;;;41.47;14.03;;;3.10;99.90;;;;;;5168090;28;20192;-69
2021/04/17 00:24:07;;;;;;;35.23;13.17;;;3.10;99.90;;;;;;5167837;28;20204;-68
2021/04/17 00:26:39;;;;;;;32.83;11.80;;;3.10;99.90;;;;;;5167140;28;20198;-68
2021/04/17 00:29:10;;;;;;;35.33;12.70;;;3.10;99.90;;;;;;5167184;28;20741;-68
2021/04/17 00:31:42;;;;;;;31.60;12.17;;;3.10;99.90;;;;;;5167579;28;20576;-68
2021/04/17 00:34:13;;;;;;;29.93;11.30;;;3.00;99.90;;;;;;5167451;28;20547;-69
2021/04/17 00:36:45;;;;;;;28.13;12.80;;;3.00;99.90;;;;;;5166976;28;20192;-71
2021/04/17 00:39:16;;;;;;;25.87;11.90;;;3.10;99.90;;;;;;5167505;28;20192;-69
2021/04/17 00:41:48;;;;;;;24.60;11.40;;;3.00;99.90;;;;;;5150463;28;20562;-69
2021/04/17 00:44:19;;;;;;;28.47;10.43;;;3.00;99.90;;;;;;5167619;28;20196;-68
2021/04/17 00:46:51;;;;;;;28.07;11.20;;;3.00;99.90;;;;;;5168520;28;20207;-73
2021/04/17 00:49:23;;;;;;;26.47;10.70;;;3.00;99.90;;;;;;5168946;28;20219;-67
2021/04/17 00:51:54;;;;;;;26.03;10.67;;;3.00;99.90;;;;;;5168686;28;20195;-70
2021/04/17 00:54:26;;;;;;;31.60;12.00;;;2.90;99.90;;;;;;5169366;28;20235;-69
2021/04/17 00:56:57;;;;;;;32.67;12.63;;;2.90;99.90;;;;;;5168615;28;20195;-71
2021/04/17 00:59:29;;;;;;;28.47;11.20;;;2.90;99.90;;;;;;5167246;28;20192;-69
2021/04/17 01:02:01;;;;;;;27.23;10.63;;;2.90;99.90;;;;;;5167367;28;20191;-68
2021/04/17 01:04:39;;;;;;;21.00;9.90;;;2.90;99.90;;;;;;5150047;28;20573;-69
2021/04/17 01:07:19;;;;;;;21.97;9.63;;;2.90;99.90;;;;;;5166998;28;20215;-68
2021/04/17 01:09:53;;;;;;;23.97;9.53;;;2.90;99.90;;;;;;5166686;28;20215;-70
2021/04/17 01:12:30;;;;;;;26.83;8.93;;;2.80;99.90;;;;;;5166989;28;20206;-69
2021/04/17 01:15:05;;;;;;;22.47;9.60;;;2.90;99.90;;;;;;5166937;28;20199;-67
2021/04/17 01:17:39;;;;;;;19.23;8.93;;;2.90;99.90;;;;;;5166862;28;20551;-69
2021/04/17 01:20:18;;;;;;;23.73;8.80;;;2.90;99.90;;;;;;5149777;28;20727;-68
2021/04/17 01:23:14;;;;;;;20.63;8.77;;;2.90;99.90;;;;;;5166382;28;20204;-69
2021/04/17 01:25:54;;;;;;;21.67;9.57;;;2.90;99.90;;;;;;5050068;29;20230;-69
2021/04/17 01:28:28;;;;;;;28.07;9.37;;;2.90;99.90;;;;;;5065500;29;20230;-69
2021/04/17 01:31:01;;;;;;;25.10;9.87;;;2.90;99.90;;;;;;5065078;29;20329;-67
2021/04/17 01:33:34;;;;;;;23.73;10.10;;;2.90;99.90;;;;;;5065480;29;20227;-67
2021/04/17 01:36:07;;;;;;;24.97;9.53;;;2.90;99.90;;;;;;5065282;29;20244;-68
2021/04/17 01:38:47;;;;;;;24.23;9.87;;;2.90;99.90;;;;;;5065308;29;20206;-70
2021/04/17 01:41:24;;;;;;;23.90;9.60;;;2.90;99.90;;;;;;5065344;29;20700;-68
2021/04/17 01:43:59;;;;;;;25.80;9.47;;;3.00;99.90;;;;;;5065298;29;20210;-69
2021/04/17 01:46:33;;;;;;;21.70;9.13;;;3.00;99.90;;;;;;5065391;29;20203;-68
2021/04/17 01:49:10;;;;;;;26.77;9.00;;;3.10;99.90;;;;;;5050268;29;20242;-68
2021/04/17 01:51:44;;;;;;;22.50;9.07;;;3.20;99.90;;;;;;5069136;29;20296;-67
2021/04/17 01:54:21;;;;;;;26.27;9.40;;;3.20;99.90;;;;;;5053705;29;20231;-69
2021/04/17 02:00:32;;;;;;;25.00;10.63;;;3.30;99.90;;;;;;5030698;29;20207;-68
2021/04/17 02:03:03;;;;;;;28.80;11.03;;;3.40;99.90;;;;;;5076421;29;20217;-68
2021/04/17 02:05:36;;;;;;;24.83;10.07;;;3.40;99.90;;;;;;5109077;29;20198;-70
2021/04/17 02:08:07;;;;;;;26.53;11.03;;;3.40;99.90;;;;;;5108291;29;20217;-69
2021/04/17 02:10:38;;;;;;;23.17;10.83;;;3.50;99.90;;;;;;5109050;29;20209;-67
2021/04/17 02:17:13;;;;;;;18.53;7.93;;;3.50;99.90;;;;;;5111343;29;20179;-72
2021/04/17 02:20:03;;;;;;;20.60;8.53;;;3.60;99.90;;;;;;5111208;29;20277;-71
2021/04/17 02:22:35;;;;;;;17.30;7.87;;;3.70;99.90;;;;;;5094827;29;20221;-68
2021/04/17 02:25:08;;;;;;;19.33;7.63;;;3.70;99.90;;;;;;5109884;29;20221;-69
2021/04/17 02:27:40;;;;;;;18.60;7.00;;;3.70;99.90;;;;;;5110181;29;20668;-69
2021/04/17 02:30:11;;;;;;;20.40;7.33;;;3.70;99.90;;;;;;5128217;28;20246;-67
2021/04/17 02:32:43;;;;;;;19.50;7.53;;;3.80;99.90;;;;;;5172853;28;20187;-68
2021/04/17 02:35:15;;;;;;;17.30;7.00;;;3.80;99.90;;;;;;5171702;28;20231;-71
2021/04/17 02:37:46;;;;;;;20.10;7.60;;;3.80;99.90;;;;;;5154479;28;20196;-69
2021/04/17 02:40:18;;;;;;;16.37;7.00;;;3.80;99.90;;;;;;5171658;28;20555;-72
2021/04/17 02:42:49;;;;;;;17.23;7.07;;;3.90;99.90;;;;;;5153581;28;20195;-68
2021/04/17 02:45:21;;;;;;;16.87;6.87;;;3.90;99.90;;;;;;5153715;28;20650;-69
2021/04/17 02:47:52;;;;;;;11.43;6.03;;;4.00;99.90;;;;;;5171921;28;20642;-69
2021/04/17 02:50:25;;;;;;;16.30;7.10;;;4.00;99.90;;;;;;5154699;28;20274;-69
2021/04/17 02:52:56;;;;;;;16.23;5.80;;;4.10;99.90;;;;;;5170458;28;20282;-69
2021/04/17 02:55:28;;;;;;;16.90;6.30;;;4.10;99.90;;;;;;5170103;28;20544;-68
2021/04/17 02:57:59;;;;;;;13.27;5.63;;;4.10;99.90;;;;;;5169683;28;20203;-69
2021/04/17 03:00:31;;;;;;;15.60;5.47;;;4.20;99.90;;;;;;5168964;28;20282;-68
2021/04/17 03:03:03;;;;;;;11.10;5.87;;;4.30;99.90;;;;;;5169247;28;20287;-69
2021/04/17 03:05:34;;;;;;;16.83;6.00;;;4.30;99.90;;;;;;5169083;28;20196;-68
2021/04/17 03:08:07;;;;;;;11.90;5.27;;;4.40;99.90;;;;;;5169146;28;20230;-69
2021/04/17 03:10:39;;;;;;;13.57;5.50;;;4.40;99.90;;;;;;5169253;28;20192;-69
2021/04/17 03:13:13;;;;;;;15.63;5.37;;;4.50;99.90;;;;;;5169172;28;20191;-67
2021/04/17 03:15:44;;;;;;;11.13;5.30;;;4.50;99.90;;;;;;5168709;28;20206;-68
2021/04/17 03:18:16;;;;;;;13.17;4.73;;;4.60;99.90;;;;;;5170196;28;20242;-71
2021/04/17 03:20:48;;;;;;;11.97;4.47;;;4.70;99.90;;;;;;5173313;28;20709;-71
2021/04/17 03:23:20;;;;;;;10.77;4.40;;;4.70;99.90;;;;;;5153000;28;20674;-69
2021/04/17 03:25:51;;;;;;;13.40;4.70;;;4.70;99.90;;;;;;5169008;28;20247;-68
2021/04/17 03:28:23;;;;;;;11.23;4.60;;;4.80;99.90;;;;;;5168336;28;20215;-69
2021/04/17 03:30:54;;;;;;;10.50;4.20;;;4.80;99.90;;;;;;5168480;28;20243;-68
2021/04/17 03:33:26;;;;;;;13.37;4.50;;;4.80;99.90;;;;;;5168595;28;20376;-67
2021/04/17 03:35:58;;;;;;;13.07;4.90;;;4.90;99.90;;;;;;5168416;28;20192;-71
2021/04/17 03:38:30;;;;;;;12.93;5.57;;;5.00;99.90;;;;;;5168376;28;20673;-69
2021/04/17 03:41:02;;;;;;;12.23;5.03;;;5.10;99.90;;;;;;5151437;28;20210;-69
2021/04/17 03:43:35;;;;;;;8.87;4.17;;;5.10;99.90;;;;;;5168820;28;20588;-69
2021/04/17 03:46:06;;;;;;;12.50;4.90;;;5.20;99.90;;;;;;5168870;28;20282;-69
2021/04/17 03:48:38;;;;;;;14.00;5.17;;;5.20;99.90;;;;;;5168829;28;20231;-69
2021/04/17 03:51:09;;;;;;;12.13;4.60;;;5.30;99.90;;;;;;5168844;28;20659;-67
2021/04/17 03:53:41;;;;;;;13.00;4.90;;;5.40;99.90;;;;;;5167975;28;20650;-69
2021/04/17 03:56:12;;;;;;;11.47;4.30;;;5.40;99.90;;;;;;5168297;28;20196;-67
2021/04/17 03:58:44;;;;;;;10.50;4.53;;;5.50;99.90;;;;;;5167949;28;20191;-72
2021/04/17 04:01:16;;;;;;;8.87;4.90;;;5.50;99.90;;;;;;5167865;28;20227;-69
2021/04/17 04:03:48;;;;;;;12.47;4.53;;;5.40;99.90;;;;;;5168051;28;20210;-68
2021/04/17 04:06:19;;;;;;;13.47;4.40;;;5.40;99.90;;;;;;5167961;28;20191;-68
2021/04/17 04:08:51;;;;;;;11.17;4.73;;;5.40;99.90;;;;;;5168369;28;20224;-69
2021/04/17 04:11:23;;;;;;;11.23;4.10;;;5.40;99.90;;;;;;5149893;28;20227;-69
2021/04/17 04:13:55;;;;;;;18.10;4.80;;;5.50;99.90;;;;;;5167339;28;20200;-68
2021/04/17 04:16:27;;;;;;;12.83;4.77;;;5.50;99.90;;;;;;5168039;28;20198;-68
2021/04/17 04:18:58;;;;;;;8.47;4.40;;;5.50;99.90;;;;;;5168411;28;20615;-69
2021/04/17 04:21:30;;;;;;;8.13;4.20;;;5.60;99.90;;;;;;5167608;28;20286;-69
2021/04/17 04:24:01;;;;;;;9.93;4.73;;;5.60;99.90;;;;;;5168101;28;20200;-70
2021/04/17 04:26:33;;;;;;;14.80;4.40;;;5.60;99.90;;;;;;5168367;28;20200;-69
2021/04/17 04:29:04;;;;;;;13.20;4.17;;;5.70;99.90;;;;;;5167160;28;20236;-71
2021/04/17 04:31:38;;;;;;;8.93;4.00;;;5.70;99.90;;;;;;5167633;28;20200;-69
2021/04/17 04:34:10;;;;;;;10.07;4.60;;;5.70;99.90;;;;;;5167154;28;20200;-69
2021/04/17 04:36:41;;;;;;;13.70;4.30;;;5.70;99.90;;;;;;5167310;28;20192;-69
2021/04/17 04:39:13;;;;;;;8.07;3.93;;;5.80;99.90;;;;;;5168262;28;20619;-69
2021/04/17 04:41:44;;;;;;;12.07;4.70;;;5.80;99.90;;;;;;5150263;28;20200;-69
2021/04/17 04:44:15;;;;;;;8.37;4.60;;;5.90;99.90;;;;;;5167416;28;20611;-69
2021/04/17 04:46:47;;;;;;;8.50;4.43;;;6.00;99.90;;;;;;5167278;28;20246;-69
2021/04/17 04:49:19;;;;;;;7.17;4.20;;;6.10;99.90;;;;;;5167564;28;20231;-69
2021/04/17 04:51:51;;;;;;;9.77;4.37;;;6.20;99.90;;;;;;5167155;28;20191;-69
2021/04/17 04:54:22;;;;;;;9.57;4.57;;;6.30;99.90;;;;;;5167300;28;20643;-71
2021/04/17 04:56:54;;;;;;;14.40;4.50;;;6.30;99.90;;;;;;5166937;28;20196;-69
2021/04/17 04:59:25;;;;;;;11.97;4.83;;;6.40;99.90;;;;;;5167266;28;20203;-69
2021/04/17 05:01:56;;;;;;;9.23;4.20;;;6.50;99.90;;;;;;5166848;28;20206;-69
2021/04/17 05:04:29;;;;;;;10.10;4.37;;;6.60;99.90;;;;;;5167516;28;20238;-70
2021/04/17 05:07:00;;;;;;;14.17;4.70;;;6.70;99.90;;;;;;5150427;28;20191;-71
2021/04/17 05:09:32;;;;;;;10.17;4.63;;;6.80;99.90;;;;;;5166998;28;20230;-70
2021/04/17 05:12:03;;;;;;;14.17;4.33;;;7.00;99.90;;;;;;5167099;28;20223;-69
2021/04/17 05:14:35;;;;;;;8.30;4.33;;;7.20;99.90;;;;;;5166800;28;20196;-68
2021/04/17 05:17:06;;;;;;;16.07;5.00;;;7.20;99.90;;;;;;5149430;28;20210;-69
2021/04/17 05:19:41;;;;;;;12.30;4.30;;;7.40;99.90;;;;;;5166830;28;20199;-69
2021/04/17 05:22:12;;;;;;;11.10;4.77;;;7.50;99.90;;;;;;5166829;28;20200;-72
2021/04/17 05:24:44;;;;;;;11.67;4.40;;;7.60;99.90;;;;;;5166906;28;20206;-69
2021/04/17 05:27:15;;;;;;;9.03;4.47;;;7.60;99.90;;;;;;5166473;28;20192;-69
2021/04/17 05:29:47;;;;;;;10.97;4.63;;;7.60;99.90;;;;;;5161572;28;20239;-69
2021/04/17 05:32:18;;;;;;;12.10;4.27;;;7.60;99.90;;;;;;5149733;28;20215;-71
2021/04/17 05:34:50;;;;;;;10.73;4.77;;;7.70;99.90;;;;;;5166735;28;20196;-72
2021/04/17 05:37:21;;;;;;;9.73;4.63;;;7.70;99.90;;;;;;5166785;28;20220;-73
2021/04/17 05:39:53;;;;;;;11.87;4.50;;;7.70;99.90;;;;;;5166462;28;20215;-68
2021/04/17 05:42:24;;;;;;;8.63;4.70;;;7.70;99.90;;;;;;5166682;28;20198;-67
2021/04/17 05:44:56;;;;;;;9.50;4.90;;;7.80;99.90;;;;;;5166494;28;20643;-67
2021/04/17 05:47:27;;;;;;;9.97;5.33;;;7.90;99.90;;;;;;5166967;28;20607;-67
2021/04/17 05:49:59;;;;;;;11.37;5.33;;;7.90;99.90;;;;;;5166661;28;20290;-66
2021/04/17 05:52:30;;;;;;;11.87;5.23;;;7.90;99.90;;;;;;5167106;28;20196;-69
2021/04/17 05:55:03;;;;;;;12.43;5.20;;;7.80;99.90;;;;;;5167204;28;20558;-71
2021/04/17 05:57:34;;;;;;;11.53;5.20;;;7.80;99.90;;;;;;5166710;28;20195;-70
2021/04/17 06:00:07;;;;;;;11.37;5.27;;;7.90;99.90;;;;;;5166783;28;20200;-73
2021/04/17 06:02:39;;;;;;;13.87;5.33;;;8.00;99.90;;;;;;5149762;28;20242;-69
2021/04/17 06:05:11;;;;;;;13.43;5.33;;;8.00;99.90;;;;;;5149309;28;20196;-68
2021/04/17 06:07:43;;;;;;;10.50;5.20;;;8.00;99.90;;;;;;5166706;28;20202;-68
2021/04/17 06:10:15;;;;;;;14.00;5.20;;;8.10;99.90;;;;;;5166569;28;20306;-72
2021/04/17 06:12:47;;;;;;;11.17;5.37;;;8.10;99.90;;;;;;5167289;28;20200;-74
2021/04/17 06:15:18;;;;;;;11.37;5.80;;;8.20;99.90;;;;;;5167313;28;20192;-68
2021/04/17 06:17:50;;;;;;;15.80;6.37;;;8.20;99.90;;;;;;5167387;28;20198;-74
2021/04/17 06:20:22;;;;;;;9.20;5.80;;;8.40;99.90;;;;;;5149532;28;20266;-67
2021/04/17 06:22:59;;;;;;;13.60;5.67;;;8.50;99.90;;;;;;5166586;28;20203;-66
2021/04/17 06:25:30;;;;;;;13.67;5.80;;;8.70;99.90;;;;;;5166471;28;20554;-66
2021/04/17 06:28:02;;;;;;;12.03;5.40;;;9.30;99.90;;;;;;5167415;28;20202;-69
2021/04/17 06:30:33;;;;;;;8.57;4.90;;;10.90;99.90;;;;;;5158602;28;20245;-69
2021/04/17 06:33:05;;;;;;;8.37;4.20;;;12.30;99.90;;;;;;5166977;28;20200;-70
2021/04/17 06:35:38;;;;;;;8.27;4.53;;;13.90;99.90;;;;;;5150051;28;20211;-69
2021/04/17 06:38:13;;;;;;;9.10;4.67;;;15.10;99.90;;;;;;5171014;28;20192;-69
2021/04/17 06:40:45;;;;;;;11.83;4.90;;;16.10;99.90;;;;;;5169825;28;20191;-69
2021/04/17 06:43:20;;;;;;;12.98;5.22;;;16.90;99.90;;;;;;5170023;28;20196;-71
2021/04/17 06:45:56;;;;;;;9.77;5.00;;;17.20;99.90;;;;;;5169811;28;20286;-70
2021/04/17 06:48:28;;;;;;;9.40;5.03;;;17.10;99.90;;;;;;5170336;28;20199;-69
2021/04/17 06:51:03;;;;;;;8.27;5.03;;;17.50;99.90;;;;;;5170077;28;20200;-70
2021/04/17 06:53:36;;;;;;;8.82;4.70;;;17.90;99.90;;;;;;5169572;28;20278;-70
2021/04/17 06:56:09;;;;;;;9.35;4.88;;;17.70;99.90;;;;;;5152631;28;20235;-70
2021/04/17 06:58:41;;;;;;;11.50;5.20;;;17.70;99.90;;;;;;5152084;28;20215;-66
2021/04/17 07:01:13;;;;;;;10.85;4.57;;;18.00;99.90;;;;;;5167674;28;20203;-69
2021/04/17 07:03:46;;;;;;;8.35;5.05;;;18.40;99.90;;;;;;5169021;28;20630;-69
2021/04/17 07:06:18;;;;;;;13.55;4.40;;;19.10;99.60;;;;;;5169365;28;20210;-68
2021/04/17 07:08:52;;;;;;;12.10;4.47;;;19.10;98.10;;;;;;5168945;28;20621;-69
2021/04/17 07:11:24;;;;;;;10.30;4.78;;;18.80;97.80;;;;;;5168927;28;20539;-69
2021/04/17 07:14:14;;;;;;;12.20;4.70;;;18.60;97.80;;;;;;5168927;28;20192;-68
2021/04/17 07:16:59;;;;;;;11.88;4.70;;;18.60;97.50;;;;;;5168379;28;20196;-71
2021/04/17 07:19:50;;;;;;;7.05;4.13;;;18.90;97.60;;;;;;5168291;28;20225;-70
2021/04/17 07:22:33;;;;;;;10.15;4.90;;;19.30;96.80;;;;;;5151236;28;20207;-67
2021/04/17 07:25:04;;;;;;;10.45;4.90;;;19.20;95.70;;;;;;5607410;23;20495;-66
2021/04/17 07:27:53;;;;;;;8.63;4.53;;;18.90;96.00;;;;;;5187482;28;20207;-69
2021/04/17 07:30:28;;;;;;;10.35;4.95;;;18.90;95.50;;;;;;5187863;28;20207;-68
2021/04/17 07:33:16;;;;;;;8.15;4.88;;;17.90;96.40;;;;;;5187861;28;20205;-67
2021/04/17 07:35:54;;;;;;;8.07;5.40;;;17.40;96.90;;;;;;5166642;28;20708;-68
2021/04/17 07:38:33;;;;;;;12.13;5.50;;;16.90;97.80;;;;;;5184712;28;20211;-67
2021/04/17 07:41:06;;;;;;;13.13;5.68;;;16.60;98.10;;;;;;5187925;28;20223;-70
2021/04/17 07:44:00;;;;;;;9.10;5.40;;;16.20;99.10;;;;;;5185060;28;20203;-68
2021/04/17 07:46:41;;;;;;;7.97;5.18;;;16.10;99.90;;;;;;5186663;28;20207;-67
2021/04/17 07:49:19;;;;;;;13.77;5.72;;;16.10;99.90;;;;;;5187843;28;20548;-69
2021/04/17 07:51:59;;;;;;;9.45;6.18;;;15.50;99.90;;;;;;5187804;28;20297;-68
2021/04/17 07:54:31;;;;;;;12.85;6.03;;;15.30;99.90;;;;;;5166372;28;20658;-68
2021/04/17 07:57:08;;;;;;;10.57;5.77;;;14.50;99.90;;;;;;5185540;28;20653;-67
2021/04/17 07:59:42;;;;;;;10.80;5.77;;;13.60;99.90;;;;;;5186751;28;20234;-68
2021/04/17 08:02:15;;;;;;;9.53;5.30;;;12.80;99.90;;;;;;5186833;28;20669;-69
2021/04/17 08:04:47;;;;;;;13.13;5.87;;;12.10;99.90;;;;;;5183537;28;20555;-70
2021/04/17 08:07:20;;;;;;;10.17;5.60;;;12.10;99.90;;;;;;5195060;28;20209;-70
2021/04/17 08:09:54;;;;;;;11.63;6.00;;;12.30;99.90;;;;;;5192094;28;20206;-69
2021/04/17 08:12:26;;;;;;;10.97;5.63;;;12.30;99.90;;;;;;5187247;28;20195;-70
2021/04/17 08:14:57;;;;;;;11.90;5.77;;;12.20;99.90;;;;;;5186916;28;20195;-68
2021/04/17 08:17:29;;;;;;;7.90;5.77;;;11.80;99.90;;;;;;5186958;28;20195;-67
2021/04/17 08:20:01;;;;;;;10.20;5.60;;;11.60;99.90;;;;;;5187168;28;20214;-70
2021/04/17 08:22:33;;;;;;;10.53;5.60;;;11.20;99.90;;;;;;5187015;28;20217;-71
2021/04/17 08:25:06;;;;;;;14.13;6.90;;;11.00;99.90;;;;;;5186762;28;20203;-70
2021/04/17 08:27:39;;;;;;;9.90;5.60;;;11.10;99.90;;;;;;5186480;28;20206;-69
2021/04/17 08:30:20;;;;;;;10.50;5.57;;;11.20;99.90;;;;;;5186026;28;20222;-68
2021/04/17 08:32:52;;;;;;;14.93;6.07;;;11.30;99.90;;;;;;5185829;28;20187;-70
2021/04/17 08:35:35;;;;;;;14.27;5.40;;;11.60;99.90;;;;;;5186777;28;20199;-68
2021/04/17 08:38:09;;;;;;;10.77;5.80;;;11.90;99.90;;;;;;5187057;28;20195;-68
2021/04/17 08:40:49;;;;;;;11.20;5.90;;;11.90;99.90;;;;;;5186577;28;20231;-67
2021/04/17 08:43:22;;;;;;;10.87;6.17;;;12.10;99.90;;;;;;5173678;28;20195;-67
2021/04/17 08:46:25;;;;;;;9.33;5.80;;;12.00;99.90;;;;;;5184399;28;20226;-69
2021/04/17 08:49:00;;;;;;;15.90;5.67;;;11.80;99.90;;;;;;5182779;28;20942;-68
2021/04/17 08:51:32;;;;;;;10.73;5.93;;;11.60;99.90;;;;;;5186642;28;20331;-67
2021/04/17 08:54:08;;;;;;;15.47;6.43;;;11.60;99.90;;;;;;5186177;28;20236;-68
2021/04/17 08:56:50;;;;;;;13.07;6.17;;;11.50;99.90;;;;;;5186662;28;20633;-65
2021/04/17 08:59:33;;;;;;;11.00;5.97;;;11.30;99.90;;;;;;5185911;28;20273;-68
2021/04/17 09:02:13;;;;;;;10.30;6.27;;;11.20;99.90;;;;;;5186407;28;20571;-70
2021/04/17 09:05:01;;;;;;;15.00;6.70;;;11.00;99.90;;;;;;5186719;28;20851;-68
2021/04/17 09:07:35;;;;;;;11.30;6.40;;;11.10;99.90;;;;;;5178191;28;20202;-67
2021/04/17 09:10:22;;;;;;;9.23;6.00;;;11.20;99.90;;;;;;5182288;28;20230;-67
2021/04/17 09:13:17;;;;;;;11.93;6.07;;;11.10;99.90;;;;;;5181121;28;20205;-66
2021/04/17 09:15:56;;;;;;;12.10;5.80;;;11.20;99.90;;;;;;5181824;28;20209;-68
2021/04/17 09:18:37;;;;;;;11.50;6.73;;;11.60;99.90;;;;;;5184961;28;20194;-67
2021/04/17 09:21:14;;;;;;;10.20;6.13;;;11.80;99.90;;;;;;5181757;28;20202;-64
2021/04/17 09:23:50;;;;;;;13.20;6.67;;;11.60;99.90;;;;;;5185537;28;20628;-66
2021/04/17 09:26:31;;;;;;;9.67;6.50;;;11.30;99.90;;;;;;5182555;28;20592;-64
2021/04/17 09:29:06;;;;;;;15.23;6.50;;;11.40;99.90;;;;;;5185585;28;20273;-67
2021/04/17 09:31:39;;;;;;;10.90;6.23;;;11.60;99.90;;;;;;5182543;28;20213;-68
2021/04/17 09:34:14;;;;;;;17.43;6.37;;;11.50;99.90;;;;;;5166879;28;20195;-69
2021/04/17 09:36:49;;;;;;;9.63;5.90;;;11.30;99.90;;;;;;5185475;28;20202;-68
2021/04/17 09:39:24;;;;;;;12.77;6.50;;;11.20;99.90;;;;;;5185601;28;20210;-68
2021/04/17 09:41:59;;;;;;;12.37;6.50;;;11.20;99.90;;;;;;5156782;28;20645;-67
2021/04/17 09:44:44;;;;;;;13.50;6.43;;;11.00;99.90;;;;;;5169383;28;20614;-67
2021/04/17 09:47:18;;;;;;;14.33;7.20;;;10.90;99.90;;;;;;5180108;28;20576;-66
2021/04/17 09:49:50;;;;;;;10.33;6.77;;;10.80;99.90;;;;;;5179596;28;20215;-66
2021/04/17 09:52:23;;;;;;;10.97;7.33;;;10.40;99.90;;;;;;5180353;28;20202;-66
2021/04/17 09:54:59;;;;;;;14.20;7.13;;;10.10;99.90;;;;;;5159286;28;20207;-66
2021/04/17 09:57:32;;;;;;;12.53;7.20;;;9.90;99.90;;;;;;5177717;28;20189;-67
2021/04/17 10:00:04;;;;;;;13.77;8.20;;;9.70;99.90;;;;;;5179279;28;20675;-67
2021/04/17 10:02:48;;;;;;;15.07;7.80;;;9.50;99.90;;;;;;5179576;28;20198;-66
2021/04/17 10:05:34;;;;;;;13.47;7.70;;;9.40;99.90;;;;;;5169536;28;20618;-68
2021/04/17 10:08:07;;;;;;;14.83;7.53;;;9.40;99.90;;;;;;5175057;28;20191;-65
2021/04/17 10:10:39;;;;;;;12.40;7.73;;;9.30;99.90;;;;;;5171365;28;20713;-68
2021/04/17 10:13:10;;;;;;;15.60;7.63;;;9.30;99.90;;;;;;5173968;28;20614;-67
2021/04/17 10:15:46;;;;;;;11.00;7.30;;;9.40;99.90;;;;;;5173963;28;20641;-67
2021/04/17 10:18:18;;;;;;;11.63;7.53;;;9.50;99.90;;;;;;5165332;28;20214;-70
2021/04/17 10:20:50;;;;;;;12.47;7.63;;;9.60;99.90;;;;;;5165152;28;20234;-66
2021/04/17 10:23:23;;;;;;;13.30;7.83;;;9.60;99.90;;;;;;5167864;28;20200;-66
2021/04/17 10:26:02;;;;;;;14.00;8.17;;;9.70;99.90;;;;;;5169951;28;20318;-66
2021/04/17 10:28:36;;;;;;;13.83;7.77;;;9.80;99.90;;;;;;5175744;28;20203;-67
2021/04/17 10:31:18;;;;;;;12.23;7.77;;;9.80;99.90;;;;;;5177615;28;20212;-66
2021/04/17 10:33:50;;;;;;;14.13;7.80;;;9.90;99.90;;;;;;5178025;28;20195;-66
2021/04/17 10:36:22;;;;;;;15.00;8.00;;;10.00;99.90;;;;;;5179970;28;20554;-66
2021/04/17 10:39:07;;;;;;;13.60;8.50;;;10.10;99.90;;;;;;5180015;28;20296;-66
2021/04/17 10:41:39;;;;;;;11.50;7.40;;;10.30;99.90;;;;;;5174693;28;20660;-66
2021/04/17 10:44:14;;;;;;;12.83;7.63;;;10.50;99.90;;;;;;5170997;28;20202;-66
2021/04/17 10:46:48;;;;;;;12.43;7.70;;;10.70;99.90;;;;;;5183977;28;20568;-67
2021/04/17 10:49:32;;;;;;;17.07;7.83;;;10.70;99.90;;;;;;5158106;28;20293;-66
2021/04/17 10:52:24;;;;;;;11.87;7.03;;;10.70;99.90;;;;;;5183824;28;20195;-65
2021/04/17 10:54:56;;;;;;;10.90;7.33;;;10.80;99.90;;;;;;5184163;28;20198;-67
2021/04/17 10:57:45;;;;;;;12.40;7.03;;;10.90;99.90;;;;;;5183604;28;20203;-66
2021/04/17 11:00:31;;;;;;;14.53;8.33;;;11.00;99.90;;;;;;5183997;28;20206;-67
2021/04/17 11:03:03;;;;;;;10.77;6.90;;;11.00;99.90;;;;;;5184015;28;20295;-70
2021/04/17 11:05:35;;;;;;;11.30;7.30;;;11.00;99.90;;;;;;5184034;28;20206;-71
2021/04/17 11:08:07;;;;;;;14.43;7.23;;;11.10;99.90;;;;;;5182613;28;20211;-72
2021/04/17 11:10:39;;;;;;;13.80;7.33;;;11.20;99.90;;;;;;5183122;28;20245;-70
2021/04/17 11:13:11;;;;;;;11.70;7.27;;;11.30;99.90;;;;;;5183548;28;20642;-71
2021/04/17 11:15:44;;;;;;;9.97;7.20;;;11.30;99.90;;;;;;5183745;28;20195;-67
2021/04/17 11:18:20;;;;;;;11.17;7.20;;;11.40;99.90;;;;;;5183782;28;20217;-68
2021/04/17 11:20:59;;;;;;;12.53;7.13;;;11.40;99.90;;;;;;5183645;28;20206;-67
2021/04/17 11:23:33;;;;;;;9.50;6.87;;;11.30;99.90;;;;;;5183422;28;20286;-67
2021/04/17 11:26:26;;;;;;;14.47;7.43;;;11.30;99.90;;;;;;5183451;28;20264;-69
2021/04/17 11:29:02;;;;;;;11.70;7.80;;;11.50;99.90;;;;;;5183544;28;20227;-74
2021/04/17 11:31:37;;;;;;;13.63;7.53;;;11.60;99.90;;;;;;5182721;28;20572;-75
2021/04/17 11:34:10;;;;;;;10.57;7.30;;;11.50;99.90;;;;;;5180812;28;20245;-73
2021/04/17 11:36:42;;;;;;;17.43;7.90;;;11.60;99.90;;;;;;5182583;28;20282;-73
2021/04/17 11:39:15;;;;;;;11.10;7.57;;;11.70;99.90;;;;;;5182926;28;20666;-73
2021/04/17 11:41:47;;;;;;;12.73;7.63;;;11.80;99.90;;;;;;5183148;28;20195;-73
2021/04/17 11:44:18;;;;;;;12.80;8.20;;;11.80;99.90;;;;;;5182925;28;20207;-74
2021/04/17 11:46:49;;;;;;;14.50;7.20;;;11.80;99.90;;;;;;5182661;28;20195;-69
2021/04/17 11:49:21;;;;;;;16.23;8.30;;;11.80;99.90;;;;;;5183298;28;20269;-71
2021/04/17 11:51:53;;;;;;;12.93;7.47;;;11.80;99.90;;;;;;5182619;28;20622;-69
2021/04/17 11:54:24;;;;;;;11.60;7.60;;;11.80;99.90;;;;;;5182829;28;20226;-68
2021/04/17 11:56:55;;;;;;;13.00;7.33;;;11.80;99.90;;;;;;5182839;28;20207;-69
2021/04/17 11:59:27;;;;;;;11.17;7.37;;;11.80;99.90;;;;;;5183026;28;20199;-70
2021/04/17 12:01:59;;;;;;;10.10;7.80;;;12.00;99.90;;;;;;5181960;28;20207;-67
2021/04/17 12:04:30;;;;;;;10.40;7.37;;;12.10;99.90;;;;;;5182406;28;20714;-70
2021/04/17 12:07:02;;;;;;;10.63;7.17;;;12.00;99.90;;;;;;5182827;28;20201;-68
2021/04/17 12:09:33;;;;;;;10.80;7.33;;;11.90;99.90;;;;;;5182895;28;20237;-68
2021/04/17 12:12:05;;;;;;;11.97;7.17;;;12.00;99.90;;;;;;5182493;28;20207;-69
2021/04/17 12:14:37;;;;;;;13.03;7.90;;;12.20;99.90;;;;;;5182621;28;20202;-70
2021/04/17 12:19:49;;;;;;;12.87;7.10;;;12.40;99.90;;;;;;5153988;23;20880;-68
2021/04/17 12:22:21;;;;;;;14.37;6.77;;;12.50;99.90;;;;;;5187796;28;20306;-69
2021/04/17 12:24:53;;;;;;;12.50;7.00;;;12.40;99.90;;;;;;5180714;28;20282;-68
2021/04/17 12:27:24;;;;;;;12.00;6.70;;;12.40;99.90;;;;;;5176524;28;20199;-70
2021/04/17 12:29:58;;;;;;;8.73;6.73;;;12.50;99.90;;;;;;5176883;28;20226;-67
2021/04/17 12:32:31;;;;;;;8.70;6.40;;;12.50;99.90;;;;;;5179766;28;20230;-69
2021/04/17 12:35:04;;;;;;;12.97;6.93;;;12.50;99.90;;;;;;5164613;28;20194;-68
2021/04/17 12:37:35;;;;;;;11.10;7.07;;;12.60;99.90;;;;;;5184132;28;20202;-69
2021/04/17 12:40:08;;;;;;;13.47;6.80;;;12.60;99.90;;;;;;5183864;28;20304;-60
2021/04/17 12:42:40;;;;;;;11.40;6.77;;;12.40;99.90;;;;;;5183731;28;20207;-69
2021/04/17 12:45:12;;;;;;;12.33;7.20;;;12.30;99.90;;;;;;5183561;28;20235;-69
2021/04/17 12:47:44;;;;;;;13.67;7.57;;;12.20;99.90;;;;;;5183377;28;20215;-69
2021/04/17 12:50:16;;;;;;;15.90;8.27;;;12.10;99.90;;;;;;5183657;28;20222;-70
2021/04/17 12:52:47;;;;;;;17.30;8.47;;;12.10;99.90;;;;;;5182226;28;20206;-69
2021/04/17 12:55:19;;;;;;;12.80;8.27;;;12.20;99.90;;;;;;5183109;28;20635;-68
2021/04/17 12:57:50;;;;;;;18.13;8.00;;;12.20;99.90;;;;;;5183123;28;20198;-69
2021/04/17 13:00:22;;;;;;;17.33;8.70;;;12.00;99.90;;;;;;5181205;28;20245;-67
2021/04/17 13:02:54;;;;;;;13.70;8.53;;;12.00;99.90;;;;;;5179915;28;20294;-70
2021/04/17 13:05:26;;;;;;;12.90;7.83;;;12.00;99.90;;;;;;5171281;28;20290;-68
2021/04/17 13:07:57;;;;;;;14.77;9.20;;;12.10;99.90;;;;;;5182483;28;20556;-66
2021/04/17 13:10:29;;;;;;;14.90;8.77;;;12.10;99.90;;;;;;5180785;28;20740;-68
2021/04/17 13:13:00;;;;;;;15.27;8.60;;;11.90;99.90;;;;;;5183181;28;20433;-69
2021/04/17 13:15:32;;;;;;;14.17;8.10;;;11.80;99.90;;;;;;5183127;28;20205;-68
2021/04/17 13:18:03;;;;;;;16.57;8.90;;;11.70;99.90;;;;;;5181287;28;20254;-68
2021/04/17 13:20:35;;;;;;;13.37;7.93;;;11.60;99.90;;;;;;5183334;28;20210;-69
2021/04/17 13:23:06;;;;;;;12.77;7.87;;;11.50;99.90;;;;;;5182871;28;20195;-70
2021/04/17 13:25:38;;;;;;;15.10;8.43;;;11.50;99.90;;;;;;5181730;28;20566;-69
2021/04/17 13:28:09;;;;;;;13.93;8.33;;;11.40;99.90;;;;;;5183276;28;20297;-68